Time;durP1;ratioP1;P1;durP2;ratioP2;P2;SDS_P1;SDS_P2;PMS_P1;PMS_P2;Temp;Humidity;BMP_temperature;BMP_pressure;BME280_temperature;BME280_humidity;BME280_pressure;Samples;Min_cycle;Max_cycle;Signal;HPM_P1;HPM_P2
2023/03/23 00:00:13;;;;;;;7.13;4.20;;;;;;;10.37;100.00;100235.41;4921319;29;20652;-92
2023/03/23 00:02:50;;;;;;;;;;;;;;;;;;;;;
2023/03/23 00:05:19;;;;;;;8.75;3.95;;;;;;;10.37;100.00;100223.31;4923926;29;20028;-93
2023/03/23 00:07:45;;;;;;;7.63;4.30;;;;;;;10.38;100.00;100240.53;4906192;29;20023;-93
2023/03/23 00:10:13;;;;;;;7.82;4.10;;;;;;;10.41;100.00;100240.44;4922791;29;20038;-93
2023/03/23 00:12:42;;;;;;;11.20;4.40;;;;;;;10.43;100.00;100246.44;4922246;29;20115;-92
2023/03/23 00:15:12;;;;;;;7.18;4.10;;;;;;;10.54;100.00;100254.69;4936795;28;20023;-91
2023/03/23 00:24:42;;;;;;;8.00;4.25;;;;;;;10.46;100.00;100248.06;4853367;29;20131;-92
2023/03/23 00:27:36;;;;;;;8.32;4.18;;;;;;;10.44;100.00;100242.91;4925168;28;20048;-92
2023/03/23 00:30:13;;;;;;;8.05;4.28;;;;;;;10.47;100.00;100239.38;4922582;29;20211;-93
2023/03/23 00:32:41;;;;;;;6.85;4.10;;;;;;;10.55;100.00;100242.56;4936999;28;20036;-93
2023/03/23 00:35:11;;;;;;;8.82;4.25;;;;;;;10.55;100.00;100238.25;4938514;29;20028;-92
2023/03/23 00:37:37;;;;;;;7.63;4.30;;;;;;;10.56;100.00;100241.69;4954375;28;20042;-92
2023/03/23 00:40:20;;;;;;;;;;;;;;;;;;;;;
2023/03/23 00:43:17;;;;;;;6.95;4.53;;;;;;;10.57;100.00;100244.22;4959568;28;20037;-92
2023/03/23 00:45:52;;;;;;;10.15;4.30;;;;;;;10.54;100.00;100246.91;4942877;28;20031;-93
2023/03/23 00:48:29;;;;;;;;;;;;;;;;;;;;;
2023/03/23 00:51:01;;;;;;;7.35;4.38;;;;;;;10.71;100.00;100248.97;4961773;28;20023;-92
2023/03/23 00:53:33;;;;;;;7.57;4.35;;;;;;;10.65;100.00;100239.63;4942636;28;20043;-93
2023/03/23 00:56:14;;;;;;;7.30;4.75;;;;;;;10.63;100.00;100231.06;4944634;28;20046;-93
2023/03/23 00:58:54;;;;;;;8.80;4.40;;;;;;;10.69;100.00;100230.00;4960688;28;20642;-94
2023/03/23 01:01:31;;;;;;;8.85;4.72;;;;;;;10.73;100.00;100235.91;4945059;28;20041;-93
2023/03/23 01:04:06;;;;;;;8.80;4.90;;;;;;;10.61;100.00;100224.22;4961287;28;20039;-93
2023/03/23 01:06:50;;;;;;;8.00;4.80;;;;;;;10.58;100.00;100214.81;4960960;28;20077;-94
2023/03/23 01:09:21;;;;;;;9.38;4.85;;;;;;;10.49;100.00;100190.97;4972582;28;20076;-93
2023/03/23 01:11:55;;;;;;;8.05;5.13;;;;;;;10.43;100.00;100194.59;4959425;28;20027;-93
2023/03/23 01:14:24;;;;;;;;;;;;;;;10.58;100.00;100208.78;4957028;28;20167;-93
2023/03/23 01:16:53;;;;;;;8.77;5.25;;;;;;;10.40;100.00;100193.84;4958213;28;19933;-93
2023/03/23 01:20:20;;;;;;;8.25;4.85;;;;;;;10.41;100.00;100199.00;4959949;28;20529;-93
2023/03/23 01:23:14;;;;;;;8.63;4.70;;;;;;;10.36;100.00;100153.41;4879285;29;20040;-93
2023/03/23 01:25:49;;;;;;;7.90;5.00;;;;;;;10.46;100.00;100167.72;4863909;29;20029;-93
2023/03/23 01:28:43;;;;;;;8.88;4.88;;;;;;;10.37;100.00;100149.94;4864717;29;20048;-93
2023/03/23 01:31:36;;;;;;;11.88;5.47;;;;;;;10.46;100.00;100172.91;4796526;29;20056;-94
2023/03/23 01:34:14;;;;;;;8.20;5.10;;;;;;;10.38;100.00;100149.84;4860444;29;20397;-93
2023/03/23 01:37:29;;;;;;;8.18;5.10;;;;;;;10.45;100.00;100159.09;4942564;28;20065;-94
2023/03/23 01:39:42;;;;;;;8.48;5.35;;;;;;;10.47;100.00;100156.47;4950018;28;20049;-92
2023/03/23 01:42:41;;;;;;;;;;;;;;;;;;;;;
2023/03/23 01:48:55;;;;;;;9.60;4.97;;;;;;;10.58;100.00;100156.94;4934854;28;20066;-93
2023/03/23 01:51:37;;;;;;;9.10;5.22;;;;;;;10.57;100.00;100163.91;4917781;28;20057;-93
2023/03/23 01:54:29;;;;;;;;;;;;;;;;;;;;;
2023/03/23 01:57:15;;;;;;;8.95;5.05;;;;;;;10.69;100.00;100170.38;4962567;28;20033;-92
2023/03/23 01:59:44;;;;;;;9.38;5.22;;;;;;;10.80;100.00;100157.03;4950608;28;20074;-93
2023/03/23 02:02:38;;;;;;;8.48;5.00;;;;;;;10.66;100.00;100127.28;4979153;28;20034;-94
2023/03/23 02:06:02;;;;;;;;;;;;;;;;;;;;;
2023/03/23 02:09:25;;;;;;;9.07;5.20;;;;;;;10.84;100.00;100143.94;4949879;28;20049;-93
2023/03/23 02:12:35;;;;;;;;;;;;;;;;;;;;;
2023/03/23 02:15:35;;;;;;;9.10;5.15;;;;;;;10.72;100.00;100128.78;4959979;28;20517;-92
2023/03/23 02:18:52;;;;;;;;;;;;;;;;;;;;;
2023/03/23 02:21:57;;;;;;;8.88;4.93;;;;;;;10.89;100.00;100129.03;4862246;28;20432;-92
2023/03/23 02:24:41;;;;;;;8.63;5.35;;;;;;;10.90;100.00;100140.25;4880993;29;20044;-94
2023/03/23 02:27:31;;;;;;;7.85;5.38;;;;;;;10.90;100.00;100130.75;4894971;29;20481;-92
2023/03/23 02:30:41;;;;;;;8.68;5.25;;;;;;;10.78;100.00;100107.00;4924406;28;20057;-92
2023/03/23 02:33:34;;;;;;;8.75;4.82;;;;;;;10.91;100.00;100132.44;4941991;28;20031;-92
2023/03/23 02:36:10;;;;;;;8.88;4.57;;;;;;;10.79;100.00;100114.72;4973059;28;20283;-93
2023/03/23 02:38:50;;;;;;;7.88;5.35;;;;;;;10.98;100.00;100133.06;4942587;28;20031;-94
2023/03/23 02:41:21;;;;;;;7.68;5.20;;;;;;;10.85;100.00;100106.72;4957658;28;20089;-92
2023/03/23 02:43:50;;;;;;;10.30;4.75;;;;;;;10.96;100.00;100107.19;4954641;28;20041;-92
2023/03/23 02:46:21;;;;;;;8.65;4.90;;;;;;;11.00;100.00;100106.16;4941992;28;20034;-93
2023/03/23 02:48:55;;;;;;;8.18;5.10;;;;;;;11.04;100.00;100106.91;4941775;28;20022;-92
2023/03/23 02:51:45;;;;;;;;;;;;;;;;;;;;;
2023/03/23 02:54:16;;;;;;;8.20;4.28;;;;;;;11.06;100.00;100110.25;4962289;28;20046;-93
2023/03/23 02:57:18;;;;;;;7.70;4.63;;;;;;;11.00;100.00;100108.75;4958880;28;20040;-95
2023/03/23 02:59:48;;;;;;;8.32;4.90;;;;;;;11.11;100.00;100116.13;4960542;28;20050;-94
2023/03/23 03:02:27;;;;;;;7.88;4.65;;;;;;;11.13;100.00;100116.91;4964170;28;20038;-93
2023/03/23 03:05:27;;;;;;;8.13;5.00;;;;;;;11.14;100.00;100115.16;4946505;28;20059;-94
2023/03/23 03:14:31;;;;;;;8.25;4.57;;;;;;;11.21;100.00;100119.22;4963623;28;20042;-93
2023/03/23 03:17:23;;;;;;;6.63;4.68;;;;;;;11.29;100.00;100137.94;4962275;28;20482;-92
2023/03/23 03:20:14;;;;;;;7.82;4.72;;;;;;;11.12;100.00;100111.81;4945929;28;20097;-93
2023/03/23 03:22:52;;;;;;;9.40;5.07;;;;;;;11.23;100.00;100130.38;4944822;28;20093;-93
2023/03/23 03:25:27;;;;;;;6.75;4.53;;;;;;;11.22;100.00;100126.94;4944837;28;20507;-94
2023/03/23 03:27:56;;;;;;;7.68;4.35;;;;;;;11.22;100.00;100126.09;4961418;28;20407;-93
2023/03/23 03:30:30;;;;;;;8.35;4.75;;;;;;;11.31;100.00;100146.50;4961312;28;20027;-92
2023/03/23 03:33:02;;;;;;;7.20;4.32;;;;;;;11.23;100.00;100118.25;4949594;28;20031;-92
2023/03/23 03:35:29;;;;;;;7.00;4.50;;;;;;;11.23;100.00;100128.63;4958262;28;20065;-92
2023/03/23 03:37:55;;;;;;;7.20;4.82;;;;;;;11.21;100.00;100119.22;4961429;28;20089;-93
2023/03/23 03:40:26;;;;;;;10.63;5.07;;;;;;;11.22;100.00;100126.94;4959676;28;20027;-92
2023/03/23 03:43:08;;;;;;;6.75;4.85;;;;;;;11.12;100.00;100104.88;4960399;28;20041;-94
2023/03/23 03:46:16;;;;;;;8.50;4.57;;;;;;;11.19;100.00;100115.84;4945055;28;20045;-93
2023/03/23 03:49:10;;;;;;;5.70;4.30;;;;;;;11.26;100.00;100135.47;4923799;28;20511;-91
2023/03/23 03:52:20;;;;;;;7.50;4.28;;;;;;;11.33;100.00;100135.16;4949604;28;20042;-93
2023/03/23 03:54:57;;;;;;;9.57;4.22;;;;;;;11.34;100.00;100131.66;4942117;28;20444;-92
2023/03/23 03:57:55;;;;;;;8.23;4.03;;;;;;;11.37;100.00;100130.72;4961091;28;20105;-92
2023/03/23 04:00:41;;;;;;;8.68;4.32;;;;;;;11.42;100.00;100133.97;4943188;28;20287;-93
2023/03/23 04:09:26;;;;;;;5.90;3.53;;;;;;;11.30;100.00;100124.91;4948092;28;20043;-93
2023/03/23 04:11:54;;;;;;;7.60;3.80;;;;;;;11.35;100.00;100141.13;4960847;28;20026;-92
2023/03/23 04:14:41;;;;;;;7.05;4.10;;;;;;;11.32;100.00;100137.84;4960542;28;20038;-93
2023/03/23 04:17:25;;;;;;;8.65;3.42;;;;;;;11.33;100.00;100136.91;4961194;28;20042;-91
2023/03/23 04:20:07;;;;;;;6.60;3.42;;;;;;;11.33;100.00;100137.75;4941953;28;20042;-93
2023/03/23 04:22:48;;;;;;;8.80;3.85;;;;;;;11.35;100.00;100135.09;4960372;28;20185;-93
2023/03/23 04:25:39;;;;;;;8.13;3.40;;;;;;;11.33;100.00;100136.91;4949328;28;20031;-93
2023/03/23 04:28:35;;;;;;;8.45;3.38;;;;;;;11.44;100.00;100163.31;4943680;28;20045;-92
2023/03/23 04:31:19;;;;;;;8.30;3.25;;;;;;;11.36;100.00;100129.00;4962276;28;20287;-92
2023/03/23 04:33:46;;;;;;;7.43;3.25;;;;;;;11.31;100.00;100133.53;4961332;28;20023;-93
2023/03/23 04:36:23;;;;;;;6.45;2.75;;;;;;;11.33;100.00;100142.09;4960097;28;20127;-93
2023/03/23 04:38:57;;;;;;;10.13;2.53;;;;;;;11.43;100.00;100162.47;4945324;28;20031;-92
2023/03/23 04:41:53;;;;;;;;;;;;;;;;;;;;;
2023/03/23 04:44:21;;;;;;;7.20;2.75;;;;;;;11.31;100.00;100146.50;4963474;28;19997;-93
2023/03/23 04:47:29;;;;;;;6.38;2.35;;;;;;;11.37;100.00;100162.69;4962496;28;20035;-91
2023/03/23 04:49:56;;;;;;;10.00;2.33;;;;;;;11.45;100.00;100175.38;4962845;28;20101;-93
2023/03/23 04:52:30;;;;;;;11.10;2.58;;;;;;;11.32;100.00;100143.88;4961988;28;20450;-93
2023/03/23 04:55:14;;;;;;;6.20;2.42;;;;;;;11.32;100.00;100140.44;4942785;28;20042;-92
2023/03/23 04:57:40;;;;;;;6.82;1.98;;;;;;;11.47;100.00;100173.56;4959358;28;20289;-92
2023/03/23 05:00:32;;;;;;;5.78;1.98;;;;;;;11.42;100.00;100165.09;4959512;28;20026;-92
2023/03/23 05:03:09;;;;;;;9.25;2.33;;;;;;;11.31;100.00;100155.16;4974483;28;20177;-93
2023/03/23 05:05:37;;;;;;;7.13;2.10;;;;;;;11.33;100.00;100168.88;4942218;28;20038;-93
2023/03/23 05:11:43;;;;;;;8.95;2.08;;;;;;;11.37;100.00;100159.25;4955985;28;20503;-92
2023/03/23 05:14:23;;;;;;;4.18;1.60;;;;;;;11.30;100.00;100147.41;4959565;28;20023;-93
2023/03/23 05:16:48;;;;;;;6.93;2.05;;;;;;;11.28;100.00;100160.44;4942469;28;20066;-92
2023/03/23 05:19:17;;;;;;;10.02;1.98;;;;;;;11.35;100.00;100163.66;4939686;28;20077;-91
2023/03/23 05:22:12;;;;;;;7.32;2.13;;;;;;;11.37;100.00;100169.63;4959996;28;20037;-93
2023/03/23 05:24:42;;;;;;;7.10;1.90;;;;;;;11.25;100.00;100151.94;4947861;28;20487;-93
2023/03/23 05:27:57;;;;;;;;;;;;;;;;;;;;;
2023/03/23 05:31:31;;;;;;;9.70;1.80;;;;;;;11.30;100.00;100155.19;4915527;28;20047;-92
2023/03/23 05:34:50;;;;;;;6.93;1.90;;;;;;;11.38;100.00;100171.31;4869669;29;20037;-92
2023/03/23 05:40:06;;;;;;;5.32;1.70;;;;;;;11.38;100.00;100173.94;4924502;29;20039;-92
2023/03/23 05:42:35;;;;;;;6.95;1.70;;;;;;;11.27;100.00;100161.34;4969697;28;20497;-92
2023/03/23 05:45:10;;;;;;;9.65;2.30;;;;;;;11.25;100.00;100155.38;4959172;28;20475;-92
2023/03/23 05:47:36;;;;;;;8.95;1.95;;;;;;;11.29;100.00;100158.69;4942707;28;20035;-91
2023/03/23 05:50:05;;;;;;;10.30;2.00;;;;;;;11.26;100.00;100171.78;4959426;28;20018;-93
2023/03/23 05:52:35;;;;;;;6.03;1.70;;;;;;;11.33;100.00;100183.59;4958923;28;20407;-92
2023/03/23 05:55:06;;;;;;;7.93;1.67;;;;;;;11.23;100.00;100174.50;4973818;28;20027;-93
2023/03/23 05:57:32;;;;;;;4.85;1.70;;;;;;;11.24;100.00;100169.25;4958955;28;20038;-93
2023/03/23 05:59:58;;;;;;;6.65;1.90;;;;;;;11.31;100.00;100182.84;4958753;28;20031;-92
2023/03/23 06:02:29;;;;;;;6.95;1.80;;;;;;;11.32;100.00;100185.38;4958648;28;20026;-93
2023/03/23 06:04:59;;;;;;;4.85;1.60;;;;;;;11.28;100.00;100182.94;4960872;28;20023;-92
2023/03/23 06:07:25;;;;;;;8.10;2.15;;;;;;;11.33;100.00;100202.63;4978692;28;20022;-92
2023/03/23 06:09:54;;;;;;;8.23;2.50;;;;;;;11.22;100.00;100178.84;4973185;28;20031;-92
2023/03/23 06:12:20;;;;;;;8.38;2.20;;;;;;;11.19;100.00;100168.56;4974471;28;20398;-94
2023/03/23 06:14:50;;;;;;;10.10;2.00;;;;;;;11.32;100.00;100190.56;4970599;28;20475;-93
2023/03/23 06:17:18;;;;;;;7.75;2.80;;;;;;;11.28;100.00;100188.13;4954025;28;20558;-92
2023/03/23 06:19:46;;;;;;;8.98;2.30;;;;;;;11.32;100.00;100205.28;4969467;28;20078;-91
2023/03/23 06:22:12;;;;;;;5.43;2.15;;;;;;;11.34;100.00;100203.47;4971926;28;20038;-92
2023/03/23 06:24:37;;;;;;;7.63;2.15;;;;;;;11.33;100.00;100212.16;4970868;28;20035;-92
2023/03/23 06:27:03;;;;;;;7.47;2.22;;;;;;;11.47;100.00;100228.91;4954241;28;20398;-91
2023/03/23 06:29:29;;;;;;;7.57;2.40;;;;;;;11.33;100.00;100217.34;4969224;28;20034;-91
2023/03/23 06:32:00;;;;;;;7.30;2.17;;;;;;;11.38;100.00;100223.22;4963273;28;20522;-92
2023/03/23 06:34:29;;;;;;;6.85;2.00;;;;;;;11.40;100.00;100229.19;4966047;28;20026;-92
2023/03/23 06:36:55;;;;;;;11.80;2.50;;;;;;;11.40;100.00;100226.59;4973551;28;20038;-91
2023/03/23 06:39:26;;;;;;;6.75;2.15;;;;;;;11.48;100.00;100237.53;4956596;28;20386;-92
2023/03/23 06:42:01;;;;;;;10.10;2.10;;;;;;;11.42;100.00;100235.16;4967699;28;20034;-92
2023/03/23 06:44:29;;;;;;;8.88;2.17;;;;;;;11.47;100.00;100236.69;4964647;28;20486;-92
2023/03/23 06:46:55;;;;;;;5.95;1.95;;;;;;;11.49;100.00;100240.09;4957743;28;20085;-91
2023/03/23 06:49:20;;;;;;;7.25;2.03;;;;;;;11.51;100.00;100253.00;4974556;28;20031;-91
2023/03/23 06:51:49;;;;;;;10.48;2.35;;;;;;;11.49;100.00;100255.66;4985367;28;20471;-92
2023/03/23 06:54:14;;;;;;;8.82;2.17;;;;;;;11.35;100.00;100242.34;4973442;28;20416;-91
2023/03/23 06:56:47;;;;;;;8.80;2.15;;;;;;;11.45;100.00;100251.50;4957002;28;20495;-93
2023/03/23 06:59:13;;;;;;;8.68;2.20;;;;;;;11.34;100.00;100239.78;4965692;28;20034;-92
2023/03/23 07:01:39;;;;;;;7.90;2.10;;;;;;;11.37;100.00;100268.25;4951218;28;20027;-94
2023/03/23 07:04:05;;;;;;;8.35;1.92;;;;;;;11.22;100.00;100256.66;4971855;28;20081;-92
2023/03/23 07:06:33;;;;;;;6.20;1.98;;;;;;;11.30;100.00;100277.13;4974963;28;20023;-93
2023/03/23 07:09:04;;;;;;;11.75;2.20;;;;;;;11.18;100.00;100260.28;4957311;28;20030;-93
2023/03/23 07:11:30;;;;;;;8.35;2.20;;;;;;;11.26;100.00;100278.16;4983096;28;20061;-92
2023/03/23 07:13:56;;;;;;;5.90;1.77;;;;;;;11.20;100.00;100266.22;4957246;28;20062;-94
2023/03/23 07:16:21;;;;;;;9.38;2.35;;;;;;;11.18;100.00;100286.22;4957251;28;20034;-92
2023/03/23 07:18:47;;;;;;;5.95;2.10;;;;;;;11.12;100.00;100276.06;4957754;28;20439;-92
2023/03/23 07:21:12;;;;;;;6.18;2.00;;;;;;;10.92;100.00;100263.75;4964294;28;20038;-92
2023/03/23 07:23:38;;;;;;;9.30;2.40;;;;;;;10.77;100.00;100269.47;4978526;28;20030;-92
2023/03/23 07:26:06;;;;;;;8.10;2.00;;;;;;;10.67;100.00;100273.25;4963683;28;20030;-94
2023/03/23 07:28:32;;;;;;;7.97;2.20;;;;;;;10.61;100.00;100282.09;4971035;28;20445;-94
2023/03/23 07:30:57;;;;;;;7.07;1.83;;;;;;;10.60;100.00;100293.34;4959992;28;20522;-92
2023/03/23 07:33:23;;;;;;;8.00;2.20;;;;;;;10.61;100.00;100279.50;4975390;28;20431;-93
2023/03/23 07:35:48;;;;;;;10.75;2.30;;;;;;;10.68;100.00;100286.19;4969680;28;20039;-94
2023/03/23 07:38:14;;;;;;;5.90;1.77;;;;;;;10.62;100.00;100276.03;4978683;28;20073;-92
2023/03/23 07:40:43;;;;;;;6.40;1.95;;;;;;;10.82;100.00;100288.31;4954951;28;20027;-93
2023/03/23 07:43:09;;;;;;;3.97;1.83;;;;;;;10.77;100.00;100281.59;4974036;28;20027;-93
2023/03/23 07:45:34;;;;;;;5.20;1.83;;;;;;;10.86;100.00;100299.41;4980845;28;20018;-93
2023/03/23 07:48:13;;;;;;;;;;;;;;;;;;;;;
2023/03/23 07:50:41;;;;;;;3.15;1.10;;;;;;;10.61;100.00;100297.66;4973550;28;20033;-94
2023/03/23 07:53:07;;;;;;;4.60;1.20;;;;;;;10.40;100.00;100306.09;4956628;28;20023;-96
2023/03/23 07:55:33;;;;;;;5.20;1.40;;;;;;;10.10;100.00;100294.91;4963521;28;20034;-94
2023/03/23 07:57:59;;;;;;;2.63;1.10;;;;;;;9.94;100.00;100300.59;4957140;28;20109;-93
2023/03/23 08:00:25;;;;;;;2.38;0.90;;;;;;;9.81;100.00;100307.91;4970196;28;20142;-94
2023/03/23 08:02:58;;;;;;;1.20;0.98;;;;;;;9.66;100.00;100293.66;4961322;28;20034;-93
2023/03/23 08:05:42;;;;;;;2.35;1.02;;;;;;;9.70;100.00;100308.19;4959378;28;20414;-94
2023/03/23 08:08:09;;;;;;;2.83;1.10;;;;;;;9.74;100.00;100309.81;4958435;28;20347;-94
2023/03/23 08:10:35;;;;;;;3.60;0.93;;;;;;;9.80;100.00;100316.53;4955908;28;20065;-94
2023/03/23 08:13:05;;;;;;;4.43;1.00;;;;;;;9.81;100.00;100320.84;4955818;28;20115;-93
2023/03/23 08:15:31;;;;;;;2.97;1.27;;;;;;;9.87;100.00;100336.19;4968218;28;20050;-93
2023/03/23 08:18:05;;;;;;;2.53;0.88;;;;;;;9.82;100.00;100325.97;4956733;28;20062;-95
2023/03/23 08:20:32;;;;;;;2.38;1.00;;;;;;;9.80;100.00;100325.16;4979582;28;20061;-94
2023/03/23 08:22:59;;;;;;;3.63;1.40;;;;;;;9.87;100.00;100338.78;4956416;28;20117;-94
2023/03/23 08:25:25;;;;;;;3.10;1.30;;;;;;;10.00;100.00;100342.69;4960268;28;20026;-93
2023/03/23 08:27:56;;;;;;;4.75;1.45;;;;;;;10.07;100.00;100326.09;4966655;28;20034;-94
2023/03/23 08:30:28;;;;;;;4.78;1.60;;;;;;;10.42;100.00;100332.81;4961710;28;20023;-94
2023/03/23 08:33:04;;;;;;;3.60;1.40;;;;;;;10.62;100.00;100324.41;4971846;28;20031;-93
2023/03/23 08:35:43;;;;;;;3.08;1.35;;;;;;;10.76;100.00;100350.75;4963561;28;20081;-94
2023/03/23 08:38:21;;;;;;;4.20;1.50;;;;;;;10.86;100.00;100362.50;4925412;29;20070;-92
2023/03/23 08:40:50;;;;;;;4.60;1.40;;;;;;;10.75;100.00;100330.03;4926753;29;20079;-93
2023/03/23 08:43:18;;;;;;;5.07;1.17;;;;;;;10.69;100.00;100318.13;4939271;29;20550;-93
2023/03/23 08:46:37;;;;;;;2.08;1.13;;;;;;;10.93;100.00;100343.25;4925190;29;20168;-94
2023/03/23 08:49:30;;;;;;;4.03;1.10;;;;;;;11.02;100.00;100329.13;4916622;29;20106;-95
2023/03/23 08:52:09;;;;;;;2.75;0.93;;;;;;;11.18;100.00;100335.50;4904814;29;20042;-94
2023/03/23 08:54:35;;;;;;;3.28;1.00;;;;;;;11.21;100.00;100337.13;4916694;29;20132;-94
2023/03/23 09:00:26;;;;;;;2.03;1.00;;;;;;;11.20;100.00;100335.44;4933454;29;20138;-93
2023/03/23 09:03:25;;;;;;;;;;;;;;;;;;;;;
2023/03/23 09:06:12;;;;;;;3.67;0.95;;;;;;;11.31;100.00;100343.69;4929367;29;20050;-93
2023/03/23 09:09:00;;;;;;;5.88;1.20;;;;;;;11.39;100.00;100349.47;4922305;29;20032;-94
2023/03/23 09:14:47;;;;;;;6.72;1.20;;;;;;;12.09;100.00;100362.50;4920755;29;20063;-93
2023/03/23 09:17:35;;;;;;;4.50;1.35;;;;;;;12.16;99.67;100356.19;4897235;29;20054;-93
2023/03/23 09:20:25;;;;;;;3.83;1.05;;;;;;;11.95;98.43;100318.03;4918423;29;20037;-93
2023/03/23 09:23:14;;;;;;;4.93;1.10;;;;;;;11.97;98.71;100317.06;4923242;29;20038;-93
2023/03/23 09:26:02;;;;;;;4.57;1.30;;;;;;;12.23;98.81;100345.50;4946367;29;20027;-93
2023/03/23 09:28:54;;;;;;;;;;;;;;;;;;;;;
2023/03/23 09:31:31;;;;;;;4.68;1.27;;;;;;;12.24;96.49;100346.34;4935755;29;20105;-93
2023/03/23 09:34:18;;;;;;;5.03;1.38;;;;;;;12.60;98.50;100360.53;4927408;29;20280;-94
2023/03/23 09:36:59;;;;;;;4.45;1.40;;;;;;;12.77;93.77;100364.19;4942508;29;20496;-92
2023/03/23 09:40:27;;;;;;;5.57;1.65;;;;;;;12.75;95.23;100355.63;4950583;29;20078;-93
2023/03/23 09:43:31;;;;;;;6.32;1.67;;;;;;;12.75;95.47;100356.47;4953520;28;20038;-93
2023/03/23 09:46:16;;;;;;;;;;;;;;;;;;;;;
2023/03/23 09:50:01;;;;;;;;;;;;;;;;;;;;;
2023/03/23 09:52:44;;;;;;;4.97;1.30;;;;;;;12.94;95.67;100361.75;4947151;28;20031;-92
2023/03/23 09:55:25;;;;;;;4.18;1.20;;;;;;;13.08;92.21;100367.25;4951643;28;20027;-92
2023/03/23 09:59:16;;;;;;;6.25;1.75;;;;;;;13.21;94.75;100383.22;4978080;28;20133;-92
2023/03/23 10:02:04;;;;;;;4.63;1.30;;;;;;;12.99;92.71;100358.06;4916853;28;20043;-92
2023/03/23 10:04:43;;;;;;;3.33;1.20;;;;;;;13.14;92.61;100398.25;4928966;29;20050;-93
2023/03/23 10:07:21;;;;;;;4.80;1.27;;;;;;;13.11;92.18;100408.72;4953098;28;20039;-92
2023/03/23 10:09:50;;;;;;;3.45;1.40;;;;;;;13.01;91.90;100390.06;4950970;29;20035;-93
2023/03/23 10:12:27;;;;;;;4.75;1.38;;;;;;;13.09;91.07;100394.97;4962039;28;20031;-93
2023/03/23 10:15:02;;;;;;;3.35;1.40;;;;;;;13.13;93.04;100400.91;4952090;28;20035;-92
2023/03/23 10:17:38;;;;;;;6.03;1.48;;;;;;;13.06;96.51;100361.25;4953406;28;20019;-92
2023/03/23 10:20:20;;;;;;;3.50;1.30;;;;;;;13.32;91.18;100389.66;4963232;28;20057;-92
2023/03/23 10:23:03;;;;;;;5.72;1.50;;;;;;;13.25;90.90;100375.22;4963944;28;21115;-92
2023/03/23 10:25:34;;;;;;;4.65;1.33;;;;;;;13.36;93.92;100383.44;4957989;28;20518;-91
2023/03/23 10:28:21;;;;;;;6.43;1.67;;;;;;;13.64;90.22;100395.25;4952804;28;20059;-92
2023/03/23 10:30:56;;;;;;;5.15;1.38;;;;;;;14.03;90.18;100409.13;4958771;28;20506;-91
2023/03/23 10:33:34;;;;;;;6.22;1.60;;;;;;;14.38;90.25;100410.16;4956190;28;20082;-92
2023/03/23 10:36:26;;;;;;;4.72;1.63;;;;;;;14.44;89.13;100409.03;4957818;28;20038;-92
2023/03/23 10:39:27;;;;;;;3.95;1.88;;;;;;;14.41;83.91;100404.81;4953231;28;20566;-92
2023/03/23 10:42:06;;;;;;;5.93;2.00;;;;;;;14.43;84.00;100397.75;4950720;28;20037;-92
2023/03/23 10:44:38;;;;;;;7.53;2.33;;;;;;;14.52;83.34;100391.28;4948662;29;20031;-92
2023/03/23 10:47:13;;;;;;;5.85;2.20;;;;;;;14.78;81.14;100414.34;4957314;28;20187;-93
2023/03/23 10:50:13;;;;;;;4.50;2.22;;;;;;;15.02;82.20;100392.28;4953139;28;20054;-93
2023/03/23 10:52:41;;;;;;;8.32;2.13;;;;;;;15.39;79.99;100400.91;4945419;29;20034;-93
2023/03/23 10:55:26;;;;;;;;;;;;;;;;;;;;;
2023/03/23 10:58:14;;;;;;;5.13;2.20;;;;;;;15.50;80.99;100393.34;4950867;28;20495;-93
2023/03/23 11:00:48;;;;;;;6.53;2.20;;;;;;;15.84;78.81;100418.63;4946747;28;20488;-93
2023/03/23 11:03:23;;;;;;;5.50;1.88;;;;;;;16.02;76.86;100409.81;4963801;28;20050;-92
2023/03/23 11:05:54;;;;;;;5.63;2.15;;;;;;;15.89;76.74;100387.88;4942717;28;20044;-91
2023/03/23 11:08:23;;;;;;;9.05;2.03;;;;;;;15.85;75.82;100385.47;4955977;28;20059;-93
2023/03/23 11:11:16;;;;;;;6.28;2.60;;;;;;;15.95;77.21;100415.47;4950895;28;20483;-91
2023/03/23 11:13:55;;;;;;;5.20;1.90;;;;;;;15.92;77.14;100406.00;4957903;28;20405;-91
2023/03/23 11:16:41;;;;;;;4.50;1.90;;;;;;;15.90;76.78;100381.69;4958044;28;20236;-91
2023/03/23 11:19:39;;;;;;;6.05;2.00;;;;;;;16.00;74.71;100400.38;4953456;28;20035;-92
2023/03/23 11:22:09;;;;;;;5.88;1.77;;;;;;;15.75;75.25;100400.81;4955018;28;20126;-91
2023/03/23 11:24:53;;;;;;;7.68;1.85;;;;;;;15.82;77.07;100404.81;4958046;28;20039;-92
2023/03/23 11:27:31;;;;;;;5.70;2.00;;;;;;;15.98;76.52;100391.75;4961747;28;20041;-91
2023/03/23 11:30:08;;;;;;;6.63;1.70;;;;;;;16.20;73.13;100415.84;4965070;28;20514;-92
2023/03/23 11:32:36;;;;;;;5.38;1.60;;;;;;;16.13;70.38;100417.09;4964726;28;20030;-92
2023/03/23 11:35:05;;;;;;;3.85;1.63;;;;;;;15.98;72.73;100403.06;4950297;28;20047;-93
2023/03/23 11:37:52;;;;;;;7.25;2.03;;;;;;;15.95;73.75;100391.94;4981566;28;20061;-92
2023/03/23 11:40:47;;;;;;;5.13;1.63;;;;;;;15.96;75.33;100402.31;4953716;29;20042;-92
2023/03/23 11:43:18;;;;;;;5.65;1.80;;;;;;;16.11;72.16;100403.25;4945160;28;20038;-91
2023/03/23 11:46:07;;;;;;;8.30;1.60;;;;;;;16.42;71.81;100418.97;4962149;28;20129;-92
2023/03/23 11:49:00;;;;;;;4.97;1.40;;;;;;;16.55;67.57;100420.00;4958959;28;20491;-93
2023/03/23 11:52:06;;;;;;;5.00;1.42;;;;;;;16.15;69.77;100395.16;4959632;28;20101;-92
2023/03/23 11:54:40;;;;;;;;;;;;;;;16.25;70.75;100415.56;4948357;28;20126;-93
2023/03/23 11:57:14;;;;;;;4.93;1.48;;;;;;;15.95;68.22;100399.78;4953208;29;19961;-92
2023/03/23 12:00:02;;;;;;;3.58;1.40;;;;;;;16.10;69.76;100425.94;4960537;28;20030;-93
2023/03/23 12:02:59;;;;;;;7.15;1.73;;;;;;;16.15;70.39;100392.56;4955860;28;20034;-93
2023/03/23 12:06:16;;;;;;;6.38;1.50;;;;;;;16.37;70.23;100410.56;4973338;28;20061;-92
2023/03/23 12:08:58;;;;;;;6.32;1.50;;;;;;;16.35;70.47;100396.69;4859827;29;20200;-92
2023/03/23 12:11:56;;;;;;;3.35;1.30;;;;;;;16.45;70.65;100392.63;4942582;28;20109;-93
2023/03/23 12:14:51;;;;;;;;;;;;;;;;;;;;;
2023/03/23 12:17:54;;;;;;;3.88;1.45;;;;;;;16.29;69.81;100378.72;4961971;28;20038;-92
2023/03/23 12:23:43;;;;;;;4.70;1.73;;;;;;;16.06;67.65;100403.50;4934699;28;20051;-92
2023/03/23 12:26:18;;;;;;;7.15;2.00;;;;;;;16.03;69.87;100397.59;4956728;28;20027;-93
2023/03/23 12:29:08;;;;;;;7.05;2.63;;;;;;;16.06;70.57;100393.03;4964900;28;20051;-93
2023/03/23 12:32:23;;;;;;;;;;;;;;;;;;;;;
2023/03/23 12:35:19;;;;;;;6.03;1.60;;;;;;;15.76;68.56;100363.31;4943526;28;20051;-92
2023/03/23 12:38:02;;;;;;;7.57;1.80;;;;;;;15.79;69.70;100348.31;4980994;28;20047;-91
2023/03/23 12:41:07;;;;;;;6.20;2.00;;;;;;;15.88;70.73;100359.19;4960903;28;20046;-92
2023/03/23 12:43:52;;;;;;;7.03;2.05;;;;;;;15.75;71.43;100364.22;4972958;28;20035;-92
2023/03/23 12:47:00;;;;;;;5.25;1.75;;;;;;;15.84;72.02;100366.34;4951994;28;20089;-92
2023/03/23 12:49:49;;;;;;;6.43;2.25;;;;;;;15.87;71.31;100360.97;4946502;28;20101;-92
2023/03/23 12:52:45;;;;;;;8.27;2.28;;;;;;;15.92;70.17;100358.94;4960742;28;20043;-93
2023/03/23 12:55:44;;;;;;;9.82;2.30;;;;;;;15.99;70.34;100365.53;4961950;28;20030;-92
2023/03/23 12:58:18;;;;;;;6.03;2.03;;;;;;;16.09;70.90;100351.06;4963089;28;20121;-93
2023/03/23 13:00:58;;;;;;;8.55;2.20;;;;;;;16.07;69.00;100337.22;4957641;28;20064;-92
2023/03/23 13:03:57;;;;;;;5.70;2.10;;;;;;;16.42;72.40;100337.03;4982777;28;20092;-93
2023/03/23 13:06:54;;;;;;;6.32;2.05;;;;;;;16.75;70.13;100358.72;4964878;28;20022;-93
2023/03/23 13:09:56;;;;;;;5.35;2.17;;;;;;;16.74;67.62;100361.41;4950658;28;20031;-92
2023/03/23 13:12:28;;;;;;;5.55;2.00;;;;;;;16.61;69.04;100357.81;4953452;29;20031;-92
2023/03/23 13:15:19;;;;;;;7.70;2.55;;;;;;;17.01;67.56;100390.41;4952219;29;20065;-93
2023/03/23 13:18:01;;;;;;;6.05;2.10;;;;;;;17.07;66.92;100371.72;4953173;29;20019;-93
2023/03/23 13:20:26;;;;;;;6.60;2.03;;;;;;;17.16;66.51;100368.59;4953069;29;20042;-92
2023/03/23 13:23:11;;;;;;;7.10;2.10;;;;;;;17.31;66.49;100355.44;4951987;29;20031;-92
2023/03/23 13:25:59;;;;;;;6.15;2.15;;;;;;;17.37;65.45;100362.94;4940629;29;20408;-93